sensor_id;sensor_type;location;lat;lon;timestamp;P1;durP1;ratioP1;P2;durP2;ratioP2
71106;SDS011;58763;47.982;11.516;2023-07-24T00:00:31;9.13;;;5.10;;
71106;SDS011;58763;47.982;11.516;2023-07-24T00:02:59;8.52;;;5.05;;
71106;SDS011;58763;47.982;11.516;2023-07-24T00:05:25;9.98;;;5.22;;
71106;SDS011;58763;47.982;11.516;2023-07-24T00:07:51;9.40;;;5.15;;
71106;SDS011;58763;47.982;11.516;2023-07-24T00:10:16;9.43;;;5.20;;
71106;SDS011;58763;47.982;11.516;2023-07-24T00:12:41;8.52;;;4.80;;
71106;SDS011;58763;47.982;11.516;2023-07-24T00:15:08;8.88;;;5.13;;
71106;SDS011;58763;47.982;11.516;2023-07-24T00:17:34;10.10;;;4.97;;
71106;SDS011;58763;47.982;11.516;2023-07-24T00:20:00;10.43;;;5.13;;
71106;SDS011;58763;47.982;11.516;2023-07-24T00:22:26;9.18;;;4.85;;
71106;SDS011;58763;47.982;11.516;2023-07-24T00:24:52;9.20;;;5.20;;
71106;SDS011;58763;47.982;11.516;2023-07-24T00:27:17;9.95;;;5.22;;
71106;SDS011;58763;47.982;11.516;2023-07-24T00:29:43;9.07;;;4.93;;
71106;SDS011;58763;47.982;11.516;2023-07-24T00:32:09;10.88;;;5.43;;
71106;SDS011;58763;47.982;11.516;2023-07-24T00:34:34;9.15;;;5.30;;
71106;SDS011;58763;47.982;11.516;2023-07-24T00:37:00;9.43;;;5.40;;
71106;SDS011;58763;47.982;11.516;2023-07-24T00:39:25;9.60;;;5.18;;
71106;SDS011;58763;47.982;11.516;2023-07-24T00:41:53;10.40;;;5.40;;
71106;SDS011;58763;47.982;11.516;2023-07-24T00:44:19;9.82;;;5.13;;
71106;SDS011;58763;47.982;11.516;2023-07-24T00:46:45;8.70;;;4.90;;
71106;SDS011;58763;47.982;11.516;2023-07-24T00:49:10;9.25;;;5.43;;
71106;SDS011;58763;47.982;11.516;2023-07-24T00:51:37;10.80;;;5.35;;
71106;SDS011;58763;47.982;11.516;2023-07-24T00:54:04;8.88;;;5.05;;
71106;SDS011;58763;47.982;11.516;2023-07-24T00:56:31;9.27;;;5.32;;
71106;SDS011;58763;47.982;11.516;2023-07-24T00:58:58;9.60;;;5.57;;
71106;SDS011;58763;47.982;11.516;2023-07-24T01:01:24;9.90;;;5.60;;
71106;SDS011;58763;47.982;11.516;2023-07-24T01:03:51;9.05;;;4.97;;
71106;SDS011;58763;47.982;11.516;2023-07-24T01:06:17;9.18;;;5.40;;
71106;SDS011;58763;47.982;11.516;2023-07-24T01:08:42;8.85;;;5.45;;
71106;SDS011;58763;47.982;11.516;2023-07-24T01:11:10;10.63;;;5.10;;
71106;SDS011;58763;47.982;11.516;2023-07-24T01:13:40;10.50;;;5.78;;
71106;SDS011;58763;47.982;11.516;2023-07-24T01:16:13;10.43;;;5.20;;
71106;SDS011;58763;47.982;11.516;2023-07-24T01:18:43;10.05;;;5.35;;
71106;SDS011;58763;47.982;11.516;2023-07-24T01:21:09;10.90;;;5.60;;
71106;SDS011;58763;47.982;11.516;2023-07-24T01:23:45;10.73;;;5.82;;
71106;SDS011;58763;47.982;11.516;2023-07-24T01:26:24;11.45;;;5.68;;
71106;SDS011;58763;47.982;11.516;2023-07-24T01:28:50;10.38;;;5.47;;
71106;SDS011;58763;47.982;11.516;2023-07-24T01:31:16;10.35;;;5.50;;
71106;SDS011;58763;47.982;11.516;2023-07-24T01:33:42;10.70;;;5.45;;
71106;SDS011;58763;47.982;11.516;2023-07-24T01:36:09;8.75;;;5.45;;
71106;SDS011;58763;47.982;11.516;2023-07-24T01:38:35;9.73;;;5.15;;
71106;SDS011;58763;47.982;11.516;2023-07-24T01:41:02;8.48;;;5.15;;
71106;SDS011;58763;47.982;11.516;2023-07-24T01:43:28;10.73;;;5.55;;
71106;SDS011;58763;47.982;11.516;2023-07-24T01:45:55;10.20;;;5.57;;
71106;SDS011;58763;47.982;11.516;2023-07-24T01:48:21;12.55;;;5.43;;
71106;SDS011;58763;47.982;11.516;2023-07-24T01:50:47;9.85;;;5.32;;
71106;SDS011;58763;47.982;11.516;2023-07-24T01:53:12;10.88;;;5.88;;
71106;SDS011;58763;47.982;11.516;2023-07-24T01:55:38;10.50;;;5.60;;
71106;SDS011;58763;47.982;11.516;2023-07-24T01:58:04;10.35;;;5.65;;
71106;SDS011;58763;47.982;11.516;2023-07-24T02:00:30;11.38;;;5.97;;
71106;SDS011;58763;47.982;11.516;2023-07-24T02:02:55;12.15;;;6.30;;
71106;SDS011;58763;47.982;11.516;2023-07-24T02:05:21;11.57;;;5.97;;
71106;SDS011;58763;47.982;11.516;2023-07-24T02:07:47;10.45;;;5.30;;
71106;SDS011;58763;47.982;11.516;2023-07-24T02:10:13;10.55;;;5.50;;
71106;SDS011;58763;47.982;11.516;2023-07-24T02:12:38;11.20;;;5.70;;
71106;SDS011;58763;47.982;11.516;2023-07-24T02:15:05;11.23;;;5.65;;
71106;SDS011;58763;47.982;11.516;2023-07-24T02:17:31;10.60;;;5.47;;
71106;SDS011;58763;47.982;11.516;2023-07-24T02:19:57;11.77;;;6.28;;
71106;SDS011;58763;47.982;11.516;2023-07-24T02:22:23;9.85;;;5.60;;
71106;SDS011;58763;47.982;11.516;2023-07-24T02:24:49;10.45;;;5.50;;
71106;SDS011;58763;47.982;11.516;2023-07-24T02:27:24;12.30;;;6.10;;
71106;SDS011;58763;47.982;11.516;2023-07-24T02:29:56;10.48;;;5.80;;
71106;SDS011;58763;47.982;11.516;2023-07-24T02:32:22;10.02;;;6.00;;
71106;SDS011;58763;47.982;11.516;2023-07-24T02:34:51;10.13;;;5.72;;
71106;SDS011;58763;47.982;11.516;2023-07-24T02:37:17;8.43;;;5.43;;
71106;SDS011;58763;47.982;11.516;2023-07-24T02:39:43;11.70;;;5.88;;
71106;SDS011;58763;47.982;11.516;2023-07-24T02:42:09;10.00;;;5.93;;
71106;SDS011;58763;47.982;11.516;2023-07-24T02:44:34;10.73;;;5.90;;
71106;SDS011;58763;47.982;11.516;2023-07-24T02:47:00;9.52;;;6.03;;
71106;SDS011;58763;47.982;11.516;2023-07-24T02:49:26;12.35;;;6.10;;
71106;SDS011;58763;47.982;11.516;2023-07-24T02:51:51;10.27;;;5.72;;
71106;SDS011;58763;47.982;11.516;2023-07-24T02:54:17;10.38;;;5.75;;
71106;SDS011;58763;47.982;11.516;2023-07-24T02:56:42;10.45;;;5.78;;
71106;SDS011;58763;47.982;11.516;2023-07-24T02:59:08;10.55;;;6.10;;
71106;SDS011;58763;47.982;11.516;2023-07-24T03:01:34;10.02;;;5.90;;
71106;SDS011;58763;47.982;11.516;2023-07-24T03:03:59;10.63;;;6.15;;
71106;SDS011;58763;47.982;11.516;2023-07-24T03:06:25;12.75;;;6.63;;
71106;SDS011;58763;47.982;11.516;2023-07-24T03:08:51;13.93;;;6.78;;
71106;SDS011;58763;47.982;11.516;2023-07-24T03:11:16;12.27;;;6.68;;
71106;SDS011;58763;47.982;11.516;2023-07-24T03:13:42;11.38;;;6.50;;
71106;SDS011;58763;47.982;11.516;2023-07-24T03:16:08;11.90;;;6.50;;
71106;SDS011;58763;47.982;11.516;2023-07-24T03:18:34;13.13;;;7.00;;
71106;SDS011;58763;47.982;11.516;2023-07-24T03:20:59;13.25;;;6.78;;
71106;SDS011;58763;47.982;11.516;2023-07-24T03:23:25;12.52;;;6.72;;
71106;SDS011;58763;47.982;11.516;2023-07-24T03:25:51;11.32;;;6.35;;
71106;SDS011;58763;47.982;11.516;2023-07-24T03:28:16;11.13;;;6.28;;
71106;SDS011;58763;47.982;11.516;2023-07-24T03:30:42;12.77;;;6.75;;
71106;SDS011;58763;47.982;11.516;2023-07-24T03:33:07;11.32;;;6.43;;
71106;SDS011;58763;47.982;11.516;2023-07-24T03:35:33;11.00;;;6.25;;
71106;SDS011;58763;47.982;11.516;2023-07-24T03:37:58;12.40;;;6.63;;
71106;SDS011;58763;47.982;11.516;2023-07-24T03:40:24;12.00;;;6.35;;
71106;SDS011;58763;47.982;11.516;2023-07-24T03:42:49;10.65;;;6.40;;
71106;SDS011;58763;47.982;11.516;2023-07-24T03:45:15;10.65;;;6.60;;
71106;SDS011;58763;47.982;11.516;2023-07-24T03:47:41;14.35;;;7.10;;
71106;SDS011;58763;47.982;11.516;2023-07-24T03:50:06;10.18;;;6.22;;
71106;SDS011;58763;47.982;11.516;2023-07-24T03:52:32;12.13;;;6.68;;
71106;SDS011;58763;47.982;11.516;2023-07-24T03:54:58;14.05;;;6.60;;
71106;SDS011;58763;47.982;11.516;2023-07-24T03:57:23;13.13;;;6.75;;
71106;SDS011;58763;47.982;11.516;2023-07-24T03:59:49;13.63;;;6.70;;
71106;SDS011;58763;47.982;11.516;2023-07-24T04:02:15;12.35;;;6.95;;
71106;SDS011;58763;47.982;11.516;2023-07-24T04:04:40;13.82;;;7.47;;
71106;SDS011;58763;47.982;11.516;2023-07-24T04:07:06;14.27;;;7.13;;
71106;SDS011;58763;47.982;11.516;2023-07-24T04:09:32;12.00;;;6.70;;
71106;SDS011;58763;47.982;11.516;2023-07-24T04:11:57;11.00;;;6.43;;
71106;SDS011;58763;47.982;11.516;2023-07-24T04:14:22;11.38;;;6.57;;
71106;SDS011;58763;47.982;11.516;2023-07-24T04:16:48;11.63;;;6.43;;
71106;SDS011;58763;47.982;11.516;2023-07-24T04:19:15;11.45;;;6.38;;
71106;SDS011;58763;47.982;11.516;2023-07-24T04:21:40;12.73;;;6.65;;
71106;SDS011;58763;47.982;11.516;2023-07-24T04:24:06;13.63;;;7.20;;
71106;SDS011;58763;47.982;11.516;2023-07-24T04:26:32;10.05;;;6.20;;
71106;SDS011;58763;47.982;11.516;2023-07-24T04:28:57;12.95;;;6.80;;
71106;SDS011;58763;47.982;11.516;2023-07-24T04:31:23;12.20;;;6.57;;
71106;SDS011;58763;47.982;11.516;2023-07-24T04:33:49;13.63;;;6.85;;
71106;SDS011;58763;47.982;11.516;2023-07-24T04:36:14;12.38;;;7.10;;
71106;SDS011;58763;47.982;11.516;2023-07-24T04:38:40;13.32;;;6.25;;
71106;SDS011;58763;47.982;11.516;2023-07-24T04:41:05;13.30;;;6.75;;
71106;SDS011;58763;47.982;11.516;2023-07-24T04:43:31;12.98;;;6.60;;
71106;SDS011;58763;47.982;11.516;2023-07-24T04:45:56;13.90;;;6.97;;
71106;SDS011;58763;47.982;11.516;2023-07-24T04:48:22;13.05;;;7.03;;
71106;SDS011;58763;47.982;11.516;2023-07-24T04:50:52;14.55;;;7.03;;
71106;SDS011;58763;47.982;11.516;2023-07-24T04:53:19;12.32;;;6.82;;
71106;SDS011;58763;47.982;11.516;2023-07-24T04:55:45;12.40;;;6.20;;
71106;SDS011;58763;47.982;11.516;2023-07-24T04:58:11;13.07;;;6.68;;
71106;SDS011;58763;47.982;11.516;2023-07-24T05:00:36;11.32;;;6.55;;
71106;SDS011;58763;47.982;11.516;2023-07-24T05:03:02;12.48;;;6.60;;
71106;SDS011;58763;47.982;11.516;2023-07-24T05:05:28;11.80;;;6.57;;
71106;SDS011;58763;47.982;11.516;2023-07-24T05:07:54;11.23;;;6.18;;
71106;SDS011;58763;47.982;11.516;2023-07-24T05:10:19;12.35;;;6.60;;
71106;SDS011;58763;47.982;11.516;2023-07-24T05:12:44;10.68;;;5.93;;
71106;SDS011;58763;47.982;11.516;2023-07-24T05:15:10;14.32;;;6.53;;
71106;SDS011;58763;47.982;11.516;2023-07-24T05:17:35;12.48;;;7.00;;
71106;SDS011;58763;47.982;11.516;2023-07-24T05:20:01;11.90;;;6.80;;
71106;SDS011;58763;47.982;11.516;2023-07-24T05:22:27;10.98;;;6.13;;
71106;SDS011;58763;47.982;11.516;2023-07-24T05:24:52;12.25;;;6.45;;
71106;SDS011;58763;47.982;11.516;2023-07-24T05:27:18;12.80;;;6.40;;
71106;SDS011;58763;47.982;11.516;2023-07-24T05:29:43;13.05;;;7.32;;
71106;SDS011;58763;47.982;11.516;2023-07-24T05:32:10;11.85;;;7.10;;
71106;SDS011;58763;47.982;11.516;2023-07-24T05:34:35;12.18;;;7.13;;
71106;SDS011;58763;47.982;11.516;2023-07-24T05:37:01;13.02;;;7.18;;
71106;SDS011;58763;47.982;11.516;2023-07-24T05:39:29;14.05;;;8.10;;
71106;SDS011;58763;47.982;11.516;2023-07-24T05:41:54;14.55;;;7.38;;
71106;SDS011;58763;47.982;11.516;2023-07-24T05:44:20;14.00;;;7.18;;
71106;SDS011;58763;47.982;11.516;2023-07-24T05:46:46;13.25;;;6.82;;
71106;SDS011;58763;47.982;11.516;2023-07-24T05:49:11;12.50;;;7.15;;
71106;SDS011;58763;47.982;11.516;2023-07-24T05:51:37;12.50;;;6.70;;
71106;SDS011;58763;47.982;11.516;2023-07-24T05:54:02;12.07;;;7.32;;
71106;SDS011;58763;47.982;11.516;2023-07-24T05:56:28;11.45;;;6.53;;
71106;SDS011;58763;47.982;11.516;2023-07-24T05:58:53;12.65;;;7.07;;
71106;SDS011;58763;47.982;11.516;2023-07-24T06:01:19;13.38;;;6.85;;
71106;SDS011;58763;47.982;11.516;2023-07-24T06:03:45;13.57;;;6.72;;
71106;SDS011;58763;47.982;11.516;2023-07-24T06:06:10;11.32;;;6.82;;
71106;SDS011;58763;47.982;11.516;2023-07-24T06:08:36;12.13;;;7.07;;
71106;SDS011;58763;47.982;11.516;2023-07-24T06:11:01;12.90;;;7.13;;
71106;SDS011;58763;47.982;11.516;2023-07-24T06:13:27;14.07;;;7.22;;
71106;SDS011;58763;47.982;11.516;2023-07-24T06:15:52;12.23;;;7.20;;
71106;SDS011;58763;47.982;11.516;2023-07-24T06:18:18;14.25;;;8.18;;
71106;SDS011;58763;47.982;11.516;2023-07-24T06:20:43;22.40;;;9.80;;
71106;SDS011;58763;47.982;11.516;2023-07-24T06:23:09;12.30;;;7.13;;
71106;SDS011;58763;47.982;11.516;2023-07-24T06:25:35;13.02;;;6.93;;
71106;SDS011;58763;47.982;11.516;2023-07-24T06:28:00;12.88;;;6.80;;
71106;SDS011;58763;47.982;11.516;2023-07-24T06:30:26;11.45;;;6.22;;
71106;SDS011;58763;47.982;11.516;2023-07-24T06:32:52;11.38;;;6.47;;
71106;SDS011;58763;47.982;11.516;2023-07-24T06:35:18;10.40;;;6.30;;
71106;SDS011;58763;47.982;11.516;2023-07-24T06:37:43;11.65;;;6.90;;
71106;SDS011;58763;47.982;11.516;2023-07-24T06:40:10;10.70;;;6.30;;
71106;SDS011;58763;47.982;11.516;2023-07-24T06:42:35;10.75;;;6.32;;
71106;SDS011;58763;47.982;11.516;2023-07-24T06:45:01;10.45;;;6.60;;
71106;SDS011;58763;47.982;11.516;2023-07-24T06:47:26;12.68;;;6.93;;
71106;SDS011;58763;47.982;11.516;2023-07-24T06:49:52;10.75;;;6.78;;
71106;SDS011;58763;47.982;11.516;2023-07-24T06:52:18;13.70;;;6.93;;
71106;SDS011;58763;47.982;11.516;2023-07-24T06:54:43;10.90;;;6.32;;
71106;SDS011;58763;47.982;11.516;2023-07-24T06:57:09;14.40;;;6.78;;
71106;SDS011;58763;47.982;11.516;2023-07-24T06:59:34;12.15;;;6.93;;
71106;SDS011;58763;47.982;11.516;2023-07-24T07:02:00;10.95;;;6.35;;
71106;SDS011;58763;47.982;11.516;2023-07-24T07:04:25;11.30;;;6.60;;
71106;SDS011;58763;47.982;11.516;2023-07-24T07:06:51;11.25;;;6.82;;
71106;SDS011;58763;47.982;11.516;2023-07-24T07:09:17;9.82;;;5.85;;
71106;SDS011;58763;47.982;11.516;2023-07-24T07:11:42;10.98;;;6.32;;
71106;SDS011;58763;47.982;11.516;2023-07-24T07:14:11;11.15;;;6.65;;
71106;SDS011;58763;47.982;11.516;2023-07-24T07:16:36;11.15;;;6.70;;
71106;SDS011;58763;47.982;11.516;2023-07-24T07:19:02;10.20;;;6.05;;
71106;SDS011;58763;47.982;11.516;2023-07-24T07:21:28;10.90;;;6.20;;
71106;SDS011;58763;47.982;11.516;2023-07-24T07:26:30;11.77;;;6.68;;
71106;SDS011;58763;47.982;11.516;2023-07-24T07:28:56;10.65;;;5.90;;
71106;SDS011;58763;47.982;11.516;2023-07-24T07:31:22;12.43;;;6.30;;
71106;SDS011;58763;47.982;11.516;2023-07-24T07:33:47;10.52;;;6.00;;
71106;SDS011;58763;47.982;11.516;2023-07-24T07:36:13;12.82;;;6.75;;
71106;SDS011;58763;47.982;11.516;2023-07-24T07:38:39;13.05;;;6.15;;
71106;SDS011;58763;47.982;11.516;2023-07-24T07:41:05;11.95;;;5.20;;
71106;SDS011;58763;47.982;11.516;2023-07-24T07:43:31;9.50;;;5.10;;
71106;SDS011;58763;47.982;11.516;2023-07-24T07:45:57;10.18;;;4.85;;
71106;SDS011;58763;47.982;11.516;2023-07-24T07:48:24;8.57;;;4.57;;
71106;SDS011;58763;47.982;11.516;2023-07-24T07:50:51;10.30;;;5.18;;
71106;SDS011;58763;47.982;11.516;2023-07-24T07:53:17;8.30;;;4.55;;
71106;SDS011;58763;47.982;11.516;2023-07-24T07:55:43;9.48;;;5.07;;
71106;SDS011;58763;47.982;11.516;2023-07-24T07:58:08;10.05;;;5.22;;
71106;SDS011;58763;47.982;11.516;2023-07-24T08:00:34;9.05;;;5.00;;
71106;SDS011;58763;47.982;11.516;2023-07-24T08:03:00;8.40;;;4.38;;
71106;SDS011;58763;47.982;11.516;2023-07-24T08:05:25;9.00;;;4.45;;
71106;SDS011;58763;47.982;11.516;2023-07-24T08:07:51;9.57;;;4.60;;
71106;SDS011;58763;47.982;11.516;2023-07-24T08:10:17;10.25;;;4.78;;
71106;SDS011;58763;47.982;11.516;2023-07-24T08:12:43;9.88;;;4.63;;
71106;SDS011;58763;47.982;11.516;2023-07-24T08:15:09;10.13;;;4.50;;
71106;SDS011;58763;47.982;11.516;2023-07-24T08:17:35;8.00;;;4.40;;
71106;SDS011;58763;47.982;11.516;2023-07-24T08:20:00;8.60;;;4.20;;
71106;SDS011;58763;47.982;11.516;2023-07-24T08:22:26;8.35;;;4.75;;
71106;SDS011;58763;47.982;11.516;2023-07-24T08:24:52;9.05;;;4.90;;
71106;SDS011;58763;47.982;11.516;2023-07-24T08:27:19;9.27;;;4.60;;
71106;SDS011;58763;47.982;11.516;2023-07-24T08:29:45;10.55;;;5.00;;
71106;SDS011;58763;47.982;11.516;2023-07-24T08:32:10;9.40;;;4.80;;
71106;SDS011;58763;47.982;11.516;2023-07-24T08:34:36;8.98;;;4.30;;
71106;SDS011;58763;47.982;11.516;2023-07-24T08:37:02;8.95;;;4.03;;
71106;SDS011;58763;47.982;11.516;2023-07-24T08:39:28;8.02;;;4.07;;
71106;SDS011;58763;47.982;11.516;2023-07-24T08:41:53;7.35;;;4.25;;
71106;SDS011;58763;47.982;11.516;2023-07-24T08:44:19;8.10;;;4.18;;
71106;SDS011;58763;47.982;11.516;2023-07-24T08:46:45;10.50;;;4.50;;
71106;SDS011;58763;47.982;11.516;2023-07-24T08:49:13;8.25;;;4.15;;
71106;SDS011;58763;47.982;11.516;2023-07-24T08:51:40;8.07;;;4.05;;
71106;SDS011;58763;47.982;11.516;2023-07-24T08:54:06;7.97;;;4.32;;
71106;SDS011;58763;47.982;11.516;2023-07-24T08:56:32;7.75;;;4.35;;
71106;SDS011;58763;47.982;11.516;2023-07-24T08:58:58;8.77;;;3.97;;
71106;SDS011;58763;47.982;11.516;2023-07-24T09:01:24;8.00;;;4.05;;
71106;SDS011;58763;47.982;11.516;2023-07-24T09:03:50;8.48;;;4.30;;
71106;SDS011;58763;47.982;11.516;2023-07-24T09:06:16;7.18;;;3.80;;
71106;SDS011;58763;47.982;11.516;2023-07-24T09:08:42;7.45;;;3.78;;
71106;SDS011;58763;47.982;11.516;2023-07-24T09:11:09;6.57;;;3.78;;
71106;SDS011;58763;47.982;11.516;2023-07-24T09:13:40;7.07;;;3.92;;
71106;SDS011;58763;47.982;11.516;2023-07-24T09:16:07;11.40;;;4.20;;
71106;SDS011;58763;47.982;11.516;2023-07-24T09:18:42;7.55;;;3.67;;
71106;SDS011;58763;47.982;11.516;2023-07-24T09:21:09;9.05;;;3.78;;
71106;SDS011;58763;47.982;11.516;2023-07-24T09:23:37;5.93;;;3.38;;
71106;SDS011;58763;47.982;11.516;2023-07-24T09:26:06;6.13;;;3.40;;
71106;SDS011;58763;47.982;11.516;2023-07-24T09:28:33;6.85;;;3.45;;
71106;SDS011;58763;47.982;11.516;2023-07-24T09:31:00;7.75;;;3.95;;
71106;SDS011;58763;47.982;11.516;2023-07-24T09:36:05;7.53;;;3.72;;
71106;SDS011;58763;47.982;11.516;2023-07-24T09:38:39;5.97;;;3.20;;
71106;SDS011;58763;47.982;11.516;2023-07-24T09:43:32;9.75;;;3.53;;
71106;SDS011;58763;47.982;11.516;2023-07-24T09:45:58;7.85;;;3.72;;
71106;SDS011;58763;47.982;11.516;2023-07-24T09:48:24;7.53;;;3.58;;
71106;SDS011;58763;47.982;11.516;2023-07-24T09:50:53;6.22;;;3.35;;
71106;SDS011;58763;47.982;11.516;2023-07-24T09:53:29;6.72;;;3.63;;
71106;SDS011;58763;47.982;11.516;2023-07-24T09:58:27;6.40;;;3.60;;
71106;SDS011;58763;47.982;11.516;2023-07-24T10:00:54;6.47;;;3.42;;
71106;SDS011;58763;47.982;11.516;2023-07-24T10:03:21;6.55;;;3.50;;
71106;SDS011;58763;47.982;11.516;2023-07-24T10:05:47;5.82;;;3.10;;
71106;SDS011;58763;47.982;11.516;2023-07-24T10:08:15;6.45;;;3.55;;
71106;SDS011;58763;47.982;11.516;2023-07-24T10:10:41;6.82;;;3.60;;
71106;SDS011;58763;47.982;11.516;2023-07-24T10:13:07;5.63;;;2.92;;
71106;SDS011;58763;47.982;11.516;2023-07-24T10:15:36;6.32;;;3.10;;
71106;SDS011;58763;47.982;11.516;2023-07-24T10:18:03;5.10;;;2.80;;
71106;SDS011;58763;47.982;11.516;2023-07-24T10:20:34;5.38;;;2.65;;
71106;SDS011;58763;47.982;11.516;2023-07-24T10:25:30;6.75;;;3.50;;
71106;SDS011;58763;47.982;11.516;2023-07-24T10:28:01;6.93;;;3.38;;
71106;SDS011;58763;47.982;11.516;2023-07-24T10:30:33;5.47;;;2.83;;
71106;SDS011;58763;47.982;11.516;2023-07-24T10:33:04;6.03;;;2.97;;
71106;SDS011;58763;47.982;11.516;2023-07-24T10:35:42;5.90;;;3.10;;
71106;SDS011;58763;47.982;11.516;2023-07-24T10:38:35;6.85;;;2.90;;
71106;SDS011;58763;47.982;11.516;2023-07-24T10:41:11;5.53;;;3.00;;
71106;SDS011;58763;47.982;11.516;2023-07-24T10:43:43;6.22;;;2.72;;
71106;SDS011;58763;47.982;11.516;2023-07-24T10:46:14;5.68;;;2.92;;
71106;SDS011;58763;47.982;11.516;2023-07-24T10:48:44;5.45;;;3.05;;
71106;SDS011;58763;47.982;11.516;2023-07-24T10:51:11;6.43;;;3.17;;
71106;SDS011;58763;47.982;11.516;2023-07-24T10:53:43;6.25;;;3.60;;
71106;SDS011;58763;47.982;11.516;2023-07-24T10:56:10;6.50;;;3.30;;
71106;SDS011;58763;47.982;11.516;2023-07-24T10:58:36;6.75;;;3.35;;
71106;SDS011;58763;47.982;11.516;2023-07-24T11:01:05;6.20;;;3.60;;
71106;SDS011;58763;47.982;11.516;2023-07-24T11:03:32;6.97;;;3.15;;
71106;SDS011;58763;47.982;11.516;2023-07-24T11:06:01;6.82;;;3.13;;
71106;SDS011;58763;47.982;11.516;2023-07-24T11:08:28;5.18;;;2.90;;
71106;SDS011;58763;47.982;11.516;2023-07-24T11:10:54;5.97;;;3.03;;
71106;SDS011;58763;47.982;11.516;2023-07-24T11:13:23;5.65;;;3.20;;
71106;SDS011;58763;47.982;11.516;2023-07-24T11:15:50;5.75;;;3.15;;
71106;SDS011;58763;47.982;11.516;2023-07-24T11:18:17;6.75;;;3.60;;
71106;SDS011;58763;47.982;11.516;2023-07-24T11:20:47;5.63;;;3.17;;
71106;SDS011;58763;47.982;11.516;2023-07-24T11:23:15;6.18;;;3.10;;
71106;SDS011;58763;47.982;11.516;2023-07-24T11:25:41;5.03;;;2.97;;
71106;SDS011;58763;47.982;11.516;2023-07-24T11:28:09;5.68;;;3.33;;
71106;SDS011;58763;47.982;11.516;2023-07-24T11:30:36;7.18;;;3.80;;
71106;SDS011;58763;47.982;11.516;2023-07-24T11:33:03;6.63;;;3.72;;
71106;SDS011;58763;47.982;11.516;2023-07-24T11:35:30;6.22;;;3.40;;
71106;SDS011;58763;47.982;11.516;2023-07-24T11:37:56;6.75;;;3.50;;
71106;SDS011;58763;47.982;11.516;2023-07-24T11:40:29;6.35;;;3.47;;
71106;SDS011;58763;47.982;11.516;2023-07-24T11:42:58;7.32;;;3.75;;
71106;SDS011;58763;47.982;11.516;2023-07-24T11:45:25;7.07;;;3.88;;
71106;SDS011;58763;47.982;11.516;2023-07-24T11:47:54;7.18;;;3.88;;
71106;SDS011;58763;47.982;11.516;2023-07-24T11:50:21;8.25;;;4.10;;
71106;SDS011;58763;47.982;11.516;2023-07-24T11:52:49;7.13;;;3.47;;
71106;SDS011;58763;47.982;11.516;2023-07-24T11:55:17;6.63;;;3.75;;
71106;SDS011;58763;47.982;11.516;2023-07-24T11:57:57;6.75;;;3.80;;
71106;SDS011;58763;47.982;11.516;2023-07-24T12:00:24;7.45;;;3.58;;
71106;SDS011;58763;47.982;11.516;2023-07-24T12:02:50;8.07;;;4.00;;
71106;SDS011;58763;47.982;11.516;2023-07-24T12:05:16;7.28;;;3.75;;
71106;SDS011;58763;47.982;11.516;2023-07-24T12:07:42;7.40;;;3.63;;
71106;SDS011;58763;47.982;11.516;2023-07-24T12:10:12;7.50;;;3.80;;
71106;SDS011;58763;47.982;11.516;2023-07-24T12:12:39;8.48;;;3.90;;
71106;SDS011;58763;47.982;11.516;2023-07-24T12:15:09;7.20;;;4.32;;
71106;SDS011;58763;47.982;11.516;2023-07-24T12:17:35;7.38;;;3.95;;
71106;SDS011;58763;47.982;11.516;2023-07-24T12:20:02;7.15;;;4.20;;
71106;SDS011;58763;47.982;11.516;2023-07-24T12:22:29;7.78;;;4.10;;
71106;SDS011;58763;47.982;11.516;2023-07-24T12:24:55;7.68;;;4.03;;
71106;SDS011;58763;47.982;11.516;2023-07-24T12:27:21;6.65;;;3.70;;
71106;SDS011;58763;47.982;11.516;2023-07-24T12:29:47;6.88;;;3.63;;
71106;SDS011;58763;47.982;11.516;2023-07-24T12:32:13;6.45;;;3.55;;
71106;SDS011;58763;47.982;11.516;2023-07-24T12:34:38;8.23;;;4.05;;
71106;SDS011;58763;47.982;11.516;2023-07-24T12:37:04;9.43;;;3.78;;
71106;SDS011;58763;47.982;11.516;2023-07-24T12:39:29;9.52;;;3.90;;
71106;SDS011;58763;47.982;11.516;2023-07-24T12:41:55;9.02;;;3.88;;
71106;SDS011;58763;47.982;11.516;2023-07-24T12:44:21;8.27;;;3.70;;
71106;SDS011;58763;47.982;11.516;2023-07-24T12:46:48;7.20;;;3.28;;
71106;SDS011;58763;47.982;11.516;2023-07-24T12:49:14;8.32;;;3.70;;
71106;SDS011;58763;47.982;11.516;2023-07-24T12:51:39;5.85;;;3.30;;
71106;SDS011;58763;47.982;11.516;2023-07-24T12:54:05;6.63;;;3.33;;
71106;SDS011;58763;47.982;11.516;2023-07-24T12:56:31;6.20;;;3.40;;
71106;SDS011;58763;47.982;11.516;2023-07-24T12:58:57;6.95;;;3.90;;
71106;SDS011;58763;47.982;11.516;2023-07-24T13:01:22;6.97;;;3.50;;
71106;SDS011;58763;47.982;11.516;2023-07-24T13:03:49;7.13;;;3.70;;
71106;SDS011;58763;47.982;11.516;2023-07-24T13:06:14;7.43;;;3.50;;
71106;SDS011;58763;47.982;11.516;2023-07-24T13:08:40;8.57;;;4.22;;
71106;SDS011;58763;47.982;11.516;2023-07-24T13:11:05;8.55;;;4.07;;
71106;SDS011;58763;47.982;11.516;2023-07-24T13:13:31;7.55;;;3.80;;
71106;SDS011;58763;47.982;11.516;2023-07-24T13:15:57;7.28;;;3.55;;
71106;SDS011;58763;47.982;11.516;2023-07-24T13:18:22;6.78;;;3.67;;
71106;SDS011;58763;47.982;11.516;2023-07-24T13:20:48;12.85;;;3.97;;
71106;SDS011;58763;47.982;11.516;2023-07-24T13:23:14;8.00;;;3.72;;
71106;SDS011;58763;47.982;11.516;2023-07-24T13:25:39;7.20;;;3.40;;
71106;SDS011;58763;47.982;11.516;2023-07-24T13:28:05;5.85;;;2.92;;
71106;SDS011;58763;47.982;11.516;2023-07-24T13:30:30;5.15;;;2.70;;
71106;SDS011;58763;47.982;11.516;2023-07-24T13:32:56;6.25;;;2.15;;
71106;SDS011;58763;47.982;11.516;2023-07-24T13:35:22;6.93;;;2.10;;
71106;SDS011;58763;47.982;11.516;2023-07-24T13:37:47;5.05;;;2.15;;
71106;SDS011;58763;47.982;11.516;2023-07-24T13:40:13;4.65;;;1.90;;
71106;SDS011;58763;47.982;11.516;2023-07-24T13:42:38;5.32;;;2.10;;
71106;SDS011;58763;47.982;11.516;2023-07-24T13:45:04;4.03;;;1.70;;
71106;SDS011;58763;47.982;11.516;2023-07-24T13:47:30;4.60;;;1.80;;
71106;SDS011;58763;47.982;11.516;2023-07-24T13:49:56;4.28;;;1.85;;
71106;SDS011;58763;47.982;11.516;2023-07-24T13:52:21;4.03;;;1.73;;
71106;SDS011;58763;47.982;11.516;2023-07-24T13:54:47;3.95;;;1.92;;
71106;SDS011;58763;47.982;11.516;2023-07-24T13:57:13;4.10;;;1.85;;
71106;SDS011;58763;47.982;11.516;2023-07-24T13:59:38;4.53;;;1.95;;
71106;SDS011;58763;47.982;11.516;2023-07-24T14:02:04;4.50;;;2.05;;
71106;SDS011;58763;47.982;11.516;2023-07-24T14:04:31;5.35;;;2.03;;
71106;SDS011;58763;47.982;11.516;2023-07-24T14:06:57;4.68;;;2.00;;
71106;SDS011;58763;47.982;11.516;2023-07-24T14:09:22;5.78;;;1.75;;
71106;SDS011;58763;47.982;11.516;2023-07-24T14:11:48;4.25;;;1.90;;
71106;SDS011;58763;47.982;11.516;2023-07-24T14:14:13;4.25;;;1.60;;
71106;SDS011;58763;47.982;11.516;2023-07-24T14:16:40;4.85;;;1.73;;
71106;SDS011;58763;47.982;11.516;2023-07-24T14:19:06;4.53;;;1.92;;
71106;SDS011;58763;47.982;11.516;2023-07-24T14:21:31;4.55;;;2.05;;
71106;SDS011;58763;47.982;11.516;2023-07-24T14:23:57;4.78;;;1.95;;
71106;SDS011;58763;47.982;11.516;2023-07-24T14:26:23;4.72;;;1.60;;
71106;SDS011;58763;47.982;11.516;2023-07-24T14:28:49;4.95;;;1.75;;
71106;SDS011;58763;47.982;11.516;2023-07-24T14:31:14;4.35;;;2.00;;
71106;SDS011;58763;47.982;11.516;2023-07-24T14:33:40;4.55;;;1.98;;
71106;SDS011;58763;47.982;11.516;2023-07-24T14:36:05;4.55;;;1.92;;